sensor_id;sensor_type;location;lat;lon;timestamp;P1;durP1;ratioP1;P2;durP2;ratioP2
6199;SDS011;3133;43.214;27.906;2023-04-24T00:00:58;32.37;;;20.47;;
6199;SDS011;3133;43.214;27.906;2023-04-24T00:03:26;33.20;;;22.20;;
6199;SDS011;3133;43.214;27.906;2023-04-24T00:05:54;31.27;;;21.20;;
6199;SDS011;3133;43.214;27.906;2023-04-24T00:08:21;28.23;;;19.80;;
6199;SDS011;3133;43.214;27.906;2023-04-24T00:10:48;20.23;;;14.73;;
6199;SDS011;3133;43.214;27.906;2023-04-24T00:13:17;25.83;;;12.67;;
6199;SDS011;3133;43.214;27.906;2023-04-24T00:15:44;25.97;;;13.73;;
6199;SDS011;3133;43.214;27.906;2023-04-24T00:18:12;22.40;;;15.73;;
6199;SDS011;3133;43.214;27.906;2023-04-24T00:20:38;30.53;;;17.50;;
6199;SDS011;3133;43.214;27.906;2023-04-24T00:23:07;25.10;;;16.27;;
6199;SDS011;3133;43.214;27.906;2023-04-24T00:25:34;26.43;;;16.70;;
6199;SDS011;3133;43.214;27.906;2023-04-24T00:28:01;28.27;;;16.30;;
6199;SDS011;3133;43.214;27.906;2023-04-24T00:30:27;23.13;;;16.60;;
6199;SDS011;3133;43.214;27.906;2023-04-24T00:32:55;22.80;;;15.67;;
6199;SDS011;3133;43.214;27.906;2023-04-24T00:35:22;21.27;;;13.67;;
6199;SDS011;3133;43.214;27.906;2023-04-24T00:37:48;23.03;;;14.57;;
6199;SDS011;3133;43.214;27.906;2023-04-24T00:40:17;17.33;;;12.70;;
6199;SDS011;3133;43.214;27.906;2023-04-24T00:42:44;24.93;;;13.80;;
6199;SDS011;3133;43.214;27.906;2023-04-24T00:45:11;23.37;;;13.73;;
6199;SDS011;3133;43.214;27.906;2023-04-24T00:47:39;20.80;;;13.70;;
6199;SDS011;3133;43.214;27.906;2023-04-24T00:50:07;35.50;;;21.33;;
6199;SDS011;3133;43.214;27.906;2023-04-24T00:52:35;35.47;;;23.10;;
6199;SDS011;3133;43.214;27.906;2023-04-24T00:55:02;29.63;;;19.37;;
6199;SDS011;3133;43.214;27.906;2023-04-24T00:57:30;29.63;;;19.30;;
6199;SDS011;3133;43.214;27.906;2023-04-24T00:59:59;33.27;;;21.30;;
6199;SDS011;3133;43.214;27.906;2023-04-24T01:02:26;39.00;;;21.80;;
6199;SDS011;3133;43.214;27.906;2023-04-24T01:04:53;26.33;;;19.47;;
6199;SDS011;3133;43.214;27.906;2023-04-24T01:07:20;31.60;;;22.67;;
6199;SDS011;3133;43.214;27.906;2023-04-24T01:09:47;31.03;;;20.97;;
6199;SDS011;3133;43.214;27.906;2023-04-24T01:12:16;30.63;;;20.93;;
6199;SDS011;3133;43.214;27.906;2023-04-24T01:14:45;37.07;;;22.50;;
6199;SDS011;3133;43.214;27.906;2023-04-24T01:17:12;25.40;;;17.33;;
6199;SDS011;3133;43.214;27.906;2023-04-24T01:19:39;24.23;;;14.53;;
6199;SDS011;3133;43.214;27.906;2023-04-24T01:22:11;22.40;;;13.80;;
6199;SDS011;3133;43.214;27.906;2023-04-24T01:24:39;19.60;;;13.60;;
6199;SDS011;3133;43.214;27.906;2023-04-24T01:27:07;20.07;;;13.13;;
6199;SDS011;3133;43.214;27.906;2023-04-24T01:29:34;17.27;;;12.37;;
6199;SDS011;3133;43.214;27.906;2023-04-24T01:32:02;26.73;;;12.00;;
6199;SDS011;3133;43.214;27.906;2023-04-24T01:34:29;20.87;;;11.43;;
6199;SDS011;3133;43.214;27.906;2023-04-24T01:36:57;20.57;;;10.67;;
6199;SDS011;3133;43.214;27.906;2023-04-24T01:39:26;13.70;;;10.10;;
6199;SDS011;3133;43.214;27.906;2023-04-24T01:41:53;24.37;;;10.20;;
6199;SDS011;3133;43.214;27.906;2023-04-24T01:44:20;19.20;;;10.57;;
6199;SDS011;3133;43.214;27.906;2023-04-24T01:46:48;18.10;;;10.43;;
6199;SDS011;3133;43.214;27.906;2023-04-24T01:49:15;18.43;;;9.77;;
6199;SDS011;3133;43.214;27.906;2023-04-24T01:51:42;14.73;;;9.80;;
6199;SDS011;3133;43.214;27.906;2023-04-24T01:54:09;16.93;;;9.93;;
6199;SDS011;3133;43.214;27.906;2023-04-24T01:56:37;16.27;;;9.83;;
6199;SDS011;3133;43.214;27.906;2023-04-24T01:59:08;15.20;;;9.60;;
6199;SDS011;3133;43.214;27.906;2023-04-24T02:01:36;18.23;;;10.87;;
6199;SDS011;3133;43.214;27.906;2023-04-24T02:04:03;15.67;;;9.37;;
6199;SDS011;3133;43.214;27.906;2023-04-24T02:06:31;13.60;;;9.43;;
6199;SDS011;3133;43.214;27.906;2023-04-24T02:08:58;14.57;;;11.00;;
6199;SDS011;3133;43.214;27.906;2023-04-24T02:11:25;20.60;;;11.47;;
6199;SDS011;3133;43.214;27.906;2023-04-24T02:13:54;20.37;;;10.57;;
6199;SDS011;3133;43.214;27.906;2023-04-24T02:16:20;21.17;;;12.37;;
6199;SDS011;3133;43.214;27.906;2023-04-24T02:18:47;18.67;;;12.20;;
6199;SDS011;3133;43.214;27.906;2023-04-24T02:21:14;16.80;;;10.93;;
6199;SDS011;3133;43.214;27.906;2023-04-24T02:23:41;17.27;;;9.27;;
6199;SDS011;3133;43.214;27.906;2023-04-24T02:26:08;9.77;;;6.50;;
6199;SDS011;3133;43.214;27.906;2023-04-24T02:28:35;7.70;;;5.30;;
6199;SDS011;3133;43.214;27.906;2023-04-24T02:31:03;11.67;;;5.93;;
6199;SDS011;3133;43.214;27.906;2023-04-24T02:33:31;13.87;;;5.50;;
6199;SDS011;3133;43.214;27.906;2023-04-24T02:35:58;11.07;;;5.00;;
6199;SDS011;3133;43.214;27.906;2023-04-24T02:38:25;10.20;;;5.13;;
6199;SDS011;3133;43.214;27.906;2023-04-24T02:40:51;5.70;;;4.13;;
6199;SDS011;3133;43.214;27.906;2023-04-24T02:43:18;14.60;;;4.47;;
6199;SDS011;3133;43.214;27.906;2023-04-24T02:45:45;10.17;;;4.87;;
6199;SDS011;3133;43.214;27.906;2023-04-24T02:48:14;6.60;;;4.30;;
6199;SDS011;3133;43.214;27.906;2023-04-24T02:50:42;10.27;;;4.37;;
6199;SDS011;3133;43.214;27.906;2023-04-24T02:53:10;7.90;;;4.13;;
6199;SDS011;3133;43.214;27.906;2023-04-24T02:55:36;6.63;;;4.00;;
6199;SDS011;3133;43.214;27.906;2023-04-24T02:58:03;3.63;;;3.33;;
6199;SDS011;3133;43.214;27.906;2023-04-24T03:00:31;9.13;;;4.37;;
6199;SDS011;3133;43.214;27.906;2023-04-24T03:02:57;10.03;;;4.20;;
6199;SDS011;3133;43.214;27.906;2023-04-24T03:05:26;7.33;;;4.00;;
6199;SDS011;3133;43.214;27.906;2023-04-24T03:07:53;6.57;;;4.53;;
6199;SDS011;3133;43.214;27.906;2023-04-24T03:10:20;10.47;;;3.87;;
6199;SDS011;3133;43.214;27.906;2023-04-24T03:12:47;8.30;;;4.07;;
6199;SDS011;3133;43.214;27.906;2023-04-24T03:15:14;5.47;;;3.93;;
6199;SDS011;3133;43.214;27.906;2023-04-24T03:17:41;4.63;;;3.90;;
6199;SDS011;3133;43.214;27.906;2023-04-24T03:20:08;9.33;;;3.87;;
6199;SDS011;3133;43.214;27.906;2023-04-24T03:22:37;8.83;;;4.23;;
6199;SDS011;3133;43.214;27.906;2023-04-24T03:25:04;6.63;;;4.17;;
6199;SDS011;3133;43.214;27.906;2023-04-24T03:27:33;10.00;;;4.47;;
6199;SDS011;3133;43.214;27.906;2023-04-24T03:30:00;6.50;;;3.77;;
6199;SDS011;3133;43.214;27.906;2023-04-24T03:32:27;10.27;;;4.03;;
6199;SDS011;3133;43.214;27.906;2023-04-24T03:34:54;7.07;;;4.30;;
6199;SDS011;3133;43.214;27.906;2023-04-24T03:37:20;7.40;;;3.83;;
6199;SDS011;3133;43.214;27.906;2023-04-24T03:39:49;10.10;;;4.50;;
6199;SDS011;3133;43.214;27.906;2023-04-24T03:42:16;13.07;;;4.73;;
6199;SDS011;3133;43.214;27.906;2023-04-24T03:44:43;8.27;;;4.13;;
6199;SDS011;3133;43.214;27.906;2023-04-24T03:47:10;8.20;;;4.43;;
6199;SDS011;3133;43.214;27.906;2023-04-24T03:49:37;5.43;;;3.77;;
6199;SDS011;3133;43.214;27.906;2023-04-24T03:52:03;6.20;;;4.50;;
6199;SDS011;3133;43.214;27.906;2023-04-24T03:54:30;5.77;;;4.17;;
6199;SDS011;3133;43.214;27.906;2023-04-24T03:56:58;8.20;;;4.97;;
6199;SDS011;3133;43.214;27.906;2023-04-24T03:59:26;12.93;;;5.00;;
6199;SDS011;3133;43.214;27.906;2023-04-24T04:01:53;7.50;;;4.43;;
6199;SDS011;3133;43.214;27.906;2023-04-24T04:04:20;11.30;;;4.93;;
6199;SDS011;3133;43.214;27.906;2023-04-24T04:06:47;10.27;;;4.87;;
6199;SDS011;3133;43.214;27.906;2023-04-24T04:09:14;14.87;;;5.33;;
6199;SDS011;3133;43.214;27.906;2023-04-24T04:11:41;8.33;;;5.37;;
6199;SDS011;3133;43.214;27.906;2023-04-24T04:14:09;10.30;;;5.40;;
6199;SDS011;3133;43.214;27.906;2023-04-24T04:16:36;7.43;;;5.00;;
6199;SDS011;3133;43.214;27.906;2023-04-24T04:19:03;10.50;;;5.63;;
6199;SDS011;3133;43.214;27.906;2023-04-24T04:21:30;13.13;;;5.37;;
6199;SDS011;3133;43.214;27.906;2023-04-24T04:23:57;8.00;;;5.80;;
6199;SDS011;3133;43.214;27.906;2023-04-24T04:26:24;11.47;;;5.97;;
6199;SDS011;3133;43.214;27.906;2023-04-24T04:28:52;14.13;;;6.00;;
6199;SDS011;3133;43.214;27.906;2023-04-24T04:31:20;10.40;;;5.73;;
6199;SDS011;3133;43.214;27.906;2023-04-24T04:33:48;5.80;;;4.90;;
6199;SDS011;3133;43.214;27.906;2023-04-24T04:36:15;7.90;;;5.83;;
6199;SDS011;3133;43.214;27.906;2023-04-24T04:38:42;7.07;;;5.20;;
6199;SDS011;3133;43.214;27.906;2023-04-24T04:41:09;8.67;;;5.40;;
6199;SDS011;3133;43.214;27.906;2023-04-24T04:43:37;12.17;;;5.30;;
6199;SDS011;3133;43.214;27.906;2023-04-24T04:46:05;7.57;;;5.23;;
6199;SDS011;3133;43.214;27.906;2023-04-24T04:48:37;9.20;;;5.10;;
6199;SDS011;3133;43.214;27.906;2023-04-24T04:51:05;7.27;;;4.57;;
6199;SDS011;3133;43.214;27.906;2023-04-24T04:53:33;22.63;;;4.70;;
6199;SDS011;3133;43.214;27.906;2023-04-24T04:56:00;7.83;;;5.20;;
6199;SDS011;3133;43.214;27.906;2023-04-24T04:58:27;7.27;;;4.23;;
6199;SDS011;3133;43.214;27.906;2023-04-24T05:00:54;8.80;;;5.27;;
6199;SDS011;3133;43.214;27.906;2023-04-24T05:03:22;8.20;;;4.70;;
6199;SDS011;3133;43.214;27.906;2023-04-24T05:05:50;13.90;;;5.00;;
6199;SDS011;3133;43.214;27.906;2023-04-24T05:08:17;10.37;;;5.13;;
6199;SDS011;3133;43.214;27.906;2023-04-24T05:10:44;12.57;;;5.70;;
6199;SDS011;3133;43.214;27.906;2023-04-24T05:13:11;9.27;;;4.87;;
6199;SDS011;3133;43.214;27.906;2023-04-24T05:15:38;7.97;;;5.10;;
6199;SDS011;3133;43.214;27.906;2023-04-24T05:18:04;8.80;;;4.27;;
6199;SDS011;3133;43.214;27.906;2023-04-24T05:20:31;26.03;;;6.27;;
6199;SDS011;3133;43.214;27.906;2023-04-24T05:22:59;7.13;;;4.40;;
6199;SDS011;3133;43.214;27.906;2023-04-24T05:25:27;26.13;;;5.80;;
6199;SDS011;3133;43.214;27.906;2023-04-24T05:27:53;9.27;;;4.37;;
6199;SDS011;3133;43.214;27.906;2023-04-24T05:30:20;6.50;;;4.63;;
6199;SDS011;3133;43.214;27.906;2023-04-24T05:32:47;12.03;;;5.03;;
6199;SDS011;3133;43.214;27.906;2023-04-24T05:35:14;8.73;;;4.67;;
6199;SDS011;3133;43.214;27.906;2023-04-24T05:37:41;12.43;;;4.97;;
6199;SDS011;3133;43.214;27.906;2023-04-24T05:40:10;10.17;;;5.33;;
6199;SDS011;3133;43.214;27.906;2023-04-24T05:42:37;17.13;;;4.87;;
6199;SDS011;3133;43.214;27.906;2023-04-24T05:45:05;9.40;;;5.20;;
6199;SDS011;3133;43.214;27.906;2023-04-24T05:47:33;9.37;;;4.83;;
6199;SDS011;3133;43.214;27.906;2023-04-24T05:49:59;8.87;;;4.53;;
6199;SDS011;3133;43.214;27.906;2023-04-24T05:52:26;5.30;;;4.17;;
6199;SDS011;3133;43.214;27.906;2023-04-24T05:54:53;11.60;;;5.03;;
6199;SDS011;3133;43.214;27.906;2023-04-24T05:57:22;11.07;;;4.43;;
6199;SDS011;3133;43.214;27.906;2023-04-24T05:59:48;8.60;;;4.13;;
6199;SDS011;3133;43.214;27.906;2023-04-24T06:02:15;9.63;;;4.67;;
6199;SDS011;3133;43.214;27.906;2023-04-24T06:04:42;6.50;;;4.17;;
6199;SDS011;3133;43.214;27.906;2023-04-24T06:07:10;5.83;;;4.40;;
6199;SDS011;3133;43.214;27.906;2023-04-24T06:09:37;8.53;;;3.97;;
6199;SDS011;3133;43.214;27.906;2023-04-24T06:12:04;7.67;;;4.40;;
6199;SDS011;3133;43.214;27.906;2023-04-24T06:14:34;12.13;;;4.20;;
6199;SDS011;3133;43.214;27.906;2023-04-24T06:17:01;4.43;;;3.40;;
6199;SDS011;3133;43.214;27.906;2023-04-24T06:19:28;8.57;;;4.20;;
6199;SDS011;3133;43.214;27.906;2023-04-24T06:21:55;12.17;;;4.53;;
6199;SDS011;3133;43.214;27.906;2023-04-24T06:24:22;11.10;;;4.50;;
6199;SDS011;3133;43.214;27.906;2023-04-24T06:26:53;5.67;;;3.93;;
6199;SDS011;3133;43.214;27.906;2023-04-24T06:29:20;8.17;;;4.63;;
6199;SDS011;3133;43.214;27.906;2023-04-24T06:31:48;8.57;;;4.10;;
6199;SDS011;3133;43.214;27.906;2023-04-24T06:34:15;9.93;;;4.27;;
6199;SDS011;3133;43.214;27.906;2023-04-24T06:36:42;12.57;;;4.37;;
6199;SDS011;3133;43.214;27.906;2023-04-24T06:39:10;7.53;;;3.60;;
6199;SDS011;3133;43.214;27.906;2023-04-24T06:41:37;17.13;;;3.73;;
6199;SDS011;3133;43.214;27.906;2023-04-24T06:44:05;6.80;;;4.67;;
6199;SDS011;3133;43.214;27.906;2023-04-24T06:46:32;6.63;;;3.57;;
6199;SDS011;3133;43.214;27.906;2023-04-24T06:49:00;9.20;;;4.13;;
6199;SDS011;3133;43.214;27.906;2023-04-24T06:51:27;7.50;;;3.70;;
6199;SDS011;3133;43.214;27.906;2023-04-24T06:53:54;8.90;;;4.63;;
6199;SDS011;3133;43.214;27.906;2023-04-24T06:56:22;6.47;;;4.10;;
6199;SDS011;3133;43.214;27.906;2023-04-24T06:58:50;10.50;;;3.73;;
6199;SDS011;3133;43.214;27.906;2023-04-24T07:01:17;6.73;;;3.90;;
6199;SDS011;3133;43.214;27.906;2023-04-24T07:03:44;8.43;;;4.23;;
6199;SDS011;3133;43.214;27.906;2023-04-24T07:06:12;9.43;;;4.03;;
6199;SDS011;3133;43.214;27.906;2023-04-24T07:08:41;14.77;;;3.67;;
6199;SDS011;3133;43.214;27.906;2023-04-24T07:11:08;10.17;;;4.47;;
6199;SDS011;3133;43.214;27.906;2023-04-24T07:13:35;6.83;;;3.50;;
6199;SDS011;3133;43.214;27.906;2023-04-24T07:16:06;11.47;;;4.43;;
6199;SDS011;3133;43.214;27.906;2023-04-24T07:18:33;13.10;;;4.73;;
6199;SDS011;3133;43.214;27.906;2023-04-24T07:21:01;7.87;;;4.67;;
6199;SDS011;3133;43.214;27.906;2023-04-24T07:23:29;10.37;;;4.70;;
6199;SDS011;3133;43.214;27.906;2023-04-24T07:25:56;4.43;;;3.90;;
6199;SDS011;3133;43.214;27.906;2023-04-24T07:28:23;4.80;;;3.60;;
6199;SDS011;3133;43.214;27.906;2023-04-24T07:30:50;10.87;;;4.33;;
6199;SDS011;3133;43.214;27.906;2023-04-24T07:33:19;7.10;;;4.27;;
6199;SDS011;3133;43.214;27.906;2023-04-24T07:35:46;9.13;;;4.20;;
6199;SDS011;3133;43.214;27.906;2023-04-24T07:38:13;9.07;;;4.23;;
6199;SDS011;3133;43.214;27.906;2023-04-24T07:40:41;7.90;;;4.27;;
6199;SDS011;3133;43.214;27.906;2023-04-24T07:43:08;8.80;;;4.47;;
6199;SDS011;3133;43.214;27.906;2023-04-24T07:45:35;4.80;;;3.70;;
6199;SDS011;3133;43.214;27.906;2023-04-24T07:48:02;23.83;;;4.30;;
6199;SDS011;3133;43.214;27.906;2023-04-24T07:50:29;14.60;;;4.77;;
6199;SDS011;3133;43.214;27.906;2023-04-24T07:52:56;8.00;;;4.17;;
6199;SDS011;3133;43.214;27.906;2023-04-24T07:55:23;8.77;;;4.30;;
6199;SDS011;3133;43.214;27.906;2023-04-24T07:57:51;17.70;;;4.27;;
6199;SDS011;3133;43.214;27.906;2023-04-24T08:00:18;15.37;;;5.20;;
6199;SDS011;3133;43.214;27.906;2023-04-24T08:02:46;6.90;;;3.93;;
6199;SDS011;3133;43.214;27.906;2023-04-24T08:05:13;7.27;;;4.40;;
6199;SDS011;3133;43.214;27.906;2023-04-24T08:07:39;13.97;;;4.17;;
6199;SDS011;3133;43.214;27.906;2023-04-24T08:10:09;12.50;;;4.40;;
6199;SDS011;3133;43.214;27.906;2023-04-24T08:12:37;9.77;;;3.80;;
6199;SDS011;3133;43.214;27.906;2023-04-24T08:15:07;18.80;;;4.37;;
6199;SDS011;3133;43.214;27.906;2023-04-24T08:17:35;9.57;;;4.80;;
6199;SDS011;3133;43.214;27.906;2023-04-24T08:20:02;9.57;;;4.30;;
6199;SDS011;3133;43.214;27.906;2023-04-24T08:22:30;12.33;;;4.27;;
6199;SDS011;3133;43.214;27.906;2023-04-24T08:24:59;6.10;;;3.53;;
6199;SDS011;3133;43.214;27.906;2023-04-24T08:27:27;19.67;;;4.83;;
6199;SDS011;3133;43.214;27.906;2023-04-24T08:29:55;16.43;;;4.70;;
6199;SDS011;3133;43.214;27.906;2023-04-24T08:32:24;10.97;;;4.40;;
6199;SDS011;3133;43.214;27.906;2023-04-24T08:34:53;11.87;;;4.00;;
6199;SDS011;3133;43.214;27.906;2023-04-24T08:37:21;7.30;;;4.03;;
6199;SDS011;3133;43.214;27.906;2023-04-24T08:39:49;5.40;;;4.20;;
6199;SDS011;3133;43.214;27.906;2023-04-24T08:42:16;11.20;;;4.93;;
6199;SDS011;3133;43.214;27.906;2023-04-24T08:44:44;9.47;;;5.07;;
6199;SDS011;3133;43.214;27.906;2023-04-24T08:47:12;8.17;;;4.43;;
6199;SDS011;3133;43.214;27.906;2023-04-24T08:49:40;18.80;;;4.63;;
6199;SDS011;3133;43.214;27.906;2023-04-24T08:52:07;9.83;;;4.63;;
6199;SDS011;3133;43.214;27.906;2023-04-24T08:54:34;11.47;;;4.27;;
6199;SDS011;3133;43.214;27.906;2023-04-24T08:57:02;13.53;;;4.40;;
6199;SDS011;3133;43.214;27.906;2023-04-24T08:59:29;9.13;;;3.90;;
6199;SDS011;3133;43.214;27.906;2023-04-24T09:01:57;7.47;;;4.20;;
6199;SDS011;3133;43.214;27.906;2023-04-24T09:04:25;12.67;;;4.17;;
6199;SDS011;3133;43.214;27.906;2023-04-24T09:06:56;10.17;;;4.30;;
6199;SDS011;3133;43.214;27.906;2023-04-24T09:09:24;7.17;;;4.70;;
6199;SDS011;3133;43.214;27.906;2023-04-24T09:11:52;24.17;;;4.80;;
6199;SDS011;3133;43.214;27.906;2023-04-24T09:14:20;9.30;;;4.97;;
6199;SDS011;3133;43.214;27.906;2023-04-24T09:16:48;6.63;;;4.40;;
6199;SDS011;3133;43.214;27.906;2023-04-24T09:19:16;8.60;;;4.70;;
6199;SDS011;3133;43.214;27.906;2023-04-24T09:21:45;14.97;;;5.63;;
6199;SDS011;3133;43.214;27.906;2023-04-24T09:24:16;7.33;;;4.83;;
6199;SDS011;3133;43.214;27.906;2023-04-24T09:26:45;13.73;;;5.00;;
6199;SDS011;3133;43.214;27.906;2023-04-24T09:29:16;6.47;;;4.70;;
6199;SDS011;3133;43.214;27.906;2023-04-24T09:31:44;8.23;;;4.63;;
6199;SDS011;3133;43.214;27.906;2023-04-24T09:34:12;8.83;;;4.27;;
6199;SDS011;3133;43.214;27.906;2023-04-24T09:36:40;6.07;;;4.30;;
6199;SDS011;3133;43.214;27.906;2023-04-24T09:39:09;16.73;;;4.53;;
6199;SDS011;3133;43.214;27.906;2023-04-24T09:41:45;14.13;;;5.03;;
6199;SDS011;3133;43.214;27.906;2023-04-24T09:44:13;11.30;;;4.43;;
6199;SDS011;3133;43.214;27.906;2023-04-24T09:46:41;9.00;;;3.70;;
6199;SDS011;3133;43.214;27.906;2023-04-24T09:49:10;8.97;;;4.37;;
6199;SDS011;3133;43.214;27.906;2023-04-24T09:51:40;10.33;;;4.57;;
6199;SDS011;3133;43.214;27.906;2023-04-24T09:54:13;15.23;;;5.00;;
6199;SDS011;3133;43.214;27.906;2023-04-24T09:56:42;14.03;;;4.83;;
6199;SDS011;3133;43.214;27.906;2023-04-24T09:59:12;6.33;;;4.30;;
6199;SDS011;3133;43.214;27.906;2023-04-24T10:01:39;4.80;;;4.30;;
6199;SDS011;3133;43.214;27.906;2023-04-24T10:04:18;25.07;;;4.60;;
6199;SDS011;3133;43.214;27.906;2023-04-24T10:06:47;12.93;;;4.90;;
6199;SDS011;3133;43.214;27.906;2023-04-24T10:09:15;10.97;;;5.40;;
6199;SDS011;3133;43.214;27.906;2023-04-24T10:11:43;12.07;;;3.93;;
6199;SDS011;3133;43.214;27.906;2023-04-24T10:14:14;8.87;;;4.20;;
6199;SDS011;3133;43.214;27.906;2023-04-24T10:16:42;8.30;;;3.97;;
6199;SDS011;3133;43.214;27.906;2023-04-24T10:19:09;5.70;;;4.10;;
6199;SDS011;3133;43.214;27.906;2023-04-24T10:21:38;9.03;;;4.27;;
6199;SDS011;3133;43.214;27.906;2023-04-24T10:24:11;18.10;;;4.63;;
6199;SDS011;3133;43.214;27.906;2023-04-24T10:26:40;9.70;;;4.10;;
6199;SDS011;3133;43.214;27.906;2023-04-24T10:29:09;9.37;;;4.70;;
6199;SDS011;3133;43.214;27.906;2023-04-24T10:31:38;8.63;;;4.10;;
6199;SDS011;3133;43.214;27.906;2023-04-24T10:34:06;9.87;;;4.13;;
6199;SDS011;3133;43.214;27.906;2023-04-24T10:36:36;6.27;;;4.23;;
6199;SDS011;3133;43.214;27.906;2023-04-24T10:39:07;10.60;;;3.87;;
6199;SDS011;3133;43.214;27.906;2023-04-24T10:41:36;8.00;;;4.40;;
6199;SDS011;3133;43.214;27.906;2023-04-24T10:44:04;9.70;;;4.83;;
6199;SDS011;3133;43.214;27.906;2023-04-24T10:46:34;20.87;;;5.73;;
6199;SDS011;3133;43.214;27.906;2023-04-24T10:49:03;6.43;;;3.90;;
6199;SDS011;3133;43.214;27.906;2023-04-24T10:51:47;16.47;;;5.10;;
6199;SDS011;3133;43.214;27.906;2023-04-24T10:54:22;8.87;;;4.43;;
6199;SDS011;3133;43.214;27.906;2023-04-24T10:56:50;28.97;;;5.40;;
6199;SDS011;3133;43.214;27.906;2023-04-24T10:59:23;11.73;;;4.47;;
6199;SDS011;3133;43.214;27.906;2023-04-24T11:01:53;17.03;;;5.90;;
6199;SDS011;3133;43.214;27.906;2023-04-24T11:04:31;7.63;;;4.50;;
6199;SDS011;3133;43.214;27.906;2023-04-24T11:07:00;9.63;;;5.30;;
6199;SDS011;3133;43.214;27.906;2023-04-24T11:09:29;7.77;;;5.10;;
6199;SDS011;3133;43.214;27.906;2023-04-24T11:12:04;12.43;;;5.60;;
6199;SDS011;3133;43.214;27.906;2023-04-24T11:17:31;16.23;;;5.13;;
6199;SDS011;3133;43.214;27.906;2023-04-24T11:20:02;7.03;;;4.80;;
6199;SDS011;3133;43.214;27.906;2023-04-24T11:22:32;6.53;;;4.67;;
6199;SDS011;3133;43.214;27.906;2023-04-24T11:25:01;7.10;;;4.37;;
6199;SDS011;3133;43.214;27.906;2023-04-24T11:27:29;15.30;;;4.50;;
6199;SDS011;3133;43.214;27.906;2023-04-24T11:30:02;13.00;;;5.20;;
6199;SDS011;3133;43.214;27.906;2023-04-24T11:32:34;7.33;;;5.10;;
6199;SDS011;3133;43.214;27.906;2023-04-24T11:35:02;10.13;;;4.57;;
6199;SDS011;3133;43.214;27.906;2023-04-24T11:37:33;15.97;;;4.27;;
6199;SDS011;3133;43.214;27.906;2023-04-24T11:40:02;5.90;;;4.30;;
6199;SDS011;3133;43.214;27.906;2023-04-24T11:42:33;9.93;;;4.80;;
6199;SDS011;3133;43.214;27.906;2023-04-24T11:45:00;11.53;;;4.17;;
6199;SDS011;3133;43.214;27.906;2023-04-24T11:47:29;6.40;;;4.37;;
6199;SDS011;3133;43.214;27.906;2023-04-24T11:49:59;6.00;;;4.00;;
6199;SDS011;3133;43.214;27.906;2023-04-24T11:52:27;11.73;;;5.33;;
6199;SDS011;3133;43.214;27.906;2023-04-24T11:54:54;9.43;;;4.93;;
6199;SDS011;3133;43.214;27.906;2023-04-24T11:57:21;17.67;;;5.50;;
6199;SDS011;3133;43.214;27.906;2023-04-24T11:59:50;7.90;;;4.27;;
6199;SDS011;3133;43.214;27.906;2023-04-24T12:02:20;8.00;;;4.10;;
6199;SDS011;3133;43.214;27.906;2023-04-24T12:04:49;9.93;;;4.50;;
6199;SDS011;3133;43.214;27.906;2023-04-24T12:07:16;9.93;;;4.30;;
6199;SDS011;3133;43.214;27.906;2023-04-24T12:09:44;11.40;;;4.87;;
6199;SDS011;3133;43.214;27.906;2023-04-24T12:12:12;12.13;;;5.00;;
6199;SDS011;3133;43.214;27.906;2023-04-24T12:14:43;15.50;;;5.43;;
6199;SDS011;3133;43.214;27.906;2023-04-24T12:17:10;11.00;;;4.67;;
6199;SDS011;3133;43.214;27.906;2023-04-24T12:19:37;8.80;;;4.53;;
6199;SDS011;3133;43.214;27.906;2023-04-24T12:22:06;7.50;;;4.60;;
6199;SDS011;3133;43.214;27.906;2023-04-24T12:24:33;7.40;;;4.73;;
6199;SDS011;3133;43.214;27.906;2023-04-24T12:27:00;7.07;;;3.93;;
6199;SDS011;3133;43.214;27.906;2023-04-24T12:29:27;6.87;;;4.40;;
6199;SDS011;3133;43.214;27.906;2023-04-24T12:31:54;4.27;;;3.87;;
6199;SDS011;3133;43.214;27.906;2023-04-24T12:34:22;6.50;;;3.97;;
6199;SDS011;3133;43.214;27.906;2023-04-24T12:36:55;8.47;;;4.77;;
6199;SDS011;3133;43.214;27.906;2023-04-24T12:39:25;14.80;;;4.60;;
6199;SDS011;3133;43.214;27.906;2023-04-24T12:41:55;14.53;;;4.43;;
6199;SDS011;3133;43.214;27.906;2023-04-24T12:44:30;14.13;;;6.13;;
6199;SDS011;3133;43.214;27.906;2023-04-24T12:46:59;13.00;;;4.50;;
6199;SDS011;3133;43.214;27.906;2023-04-24T12:49:26;15.93;;;4.50;;
6199;SDS011;3133;43.214;27.906;2023-04-24T12:51:53;8.73;;;5.43;;
6199;SDS011;3133;43.214;27.906;2023-04-24T12:54:20;8.67;;;5.00;;
6199;SDS011;3133;43.214;27.906;2023-04-24T12:56:48;18.87;;;6.90;;
6199;SDS011;3133;43.214;27.906;2023-04-24T12:59:16;16.27;;;4.73;;
6199;SDS011;3133;43.214;27.906;2023-04-24T13:01:43;10.83;;;5.50;;
6199;SDS011;3133;43.214;27.906;2023-04-24T13:04:10;12.17;;;4.80;;
6199;SDS011;3133;43.214;27.906;2023-04-24T13:06:36;7.17;;;4.63;;
6199;SDS011;3133;43.214;27.906;2023-04-24T13:09:03;8.70;;;5.73;;
6199;SDS011;3133;43.214;27.906;2023-04-24T13:11:30;9.87;;;5.37;;
6199;SDS011;3133;43.214;27.906;2023-04-24T13:13:58;12.63;;;5.00;;
6199;SDS011;3133;43.214;27.906;2023-04-24T13:16:28;7.17;;;4.93;;
6199;SDS011;3133;43.214;27.906;2023-04-24T13:18:55;10.67;;;4.77;;
6199;SDS011;3133;43.214;27.906;2023-04-24T13:21:22;7.93;;;5.23;;
6199;SDS011;3133;43.214;27.906;2023-04-24T13:23:49;12.07;;;5.57;;
6199;SDS011;3133;43.214;27.906;2023-04-24T13:26:17;8.57;;;5.13;;
6199;SDS011;3133;43.214;27.906;2023-04-24T13:28:44;16.63;;;5.10;;
6199;SDS011;3133;43.214;27.906;2023-04-24T13:31:13;8.53;;;4.90;;
6199;SDS011;3133;43.214;27.906;2023-04-24T13:33:42;12.87;;;4.10;;
6199;SDS011;3133;43.214;27.906;2023-04-24T13:36:09;6.60;;;4.77;;
6199;SDS011;3133;43.214;27.906;2023-04-24T13:38:36;9.30;;;4.33;;
6199;SDS011;3133;43.214;27.906;2023-04-24T13:41:03;8.23;;;5.00;;
6199;SDS011;3133;43.214;27.906;2023-04-24T13:43:32;8.90;;;4.27;;
6199;SDS011;3133;43.214;27.906;2023-04-24T13:45:59;8.07;;;4.87;;
6199;SDS011;3133;43.214;27.906;2023-04-24T13:48:29;9.67;;;5.33;;
6199;SDS011;3133;43.214;27.906;2023-04-24T13:50:56;8.03;;;4.23;;
6199;SDS011;3133;43.214;27.906;2023-04-24T13:53:23;9.63;;;4.27;;
6199;SDS011;3133;43.214;27.906;2023-04-24T13:55:51;5.33;;;4.00;;
6199;SDS011;3133;43.214;27.906;2023-04-24T13:58:18;6.93;;;4.30;;
6199;SDS011;3133;43.214;27.906;2023-04-24T14:00:45;7.63;;;4.33;;
6199;SDS011;3133;43.214;27.906;2023-04-24T14:03:39;12.60;;;4.77;;
6199;SDS011;3133;43.214;27.906;2023-04-24T14:06:06;8.77;;;4.77;;
6199;SDS011;3133;43.214;27.906;2023-04-24T14:08:33;14.43;;;4.50;;
6199;SDS011;3133;43.214;27.906;2023-04-24T14:11:00;11.53;;;4.53;;
6199;SDS011;3133;43.214;27.906;2023-04-24T14:13:27;8.17;;;4.73;;
6199;SDS011;3133;43.214;27.906;2023-04-24T14:15:55;6.37;;;4.43;;
6199;SDS011;3133;43.214;27.906;2023-04-24T14:18:22;8.90;;;4.43;;
6199;SDS011;3133;43.214;27.906;2023-04-24T14:20:50;8.40;;;4.47;;
6199;SDS011;3133;43.214;27.906;2023-04-24T14:23:18;6.87;;;4.57;;
6199;SDS011;3133;43.214;27.906;2023-04-24T14:25:45;7.80;;;4.90;;
6199;SDS011;3133;43.214;27.906;2023-04-24T14:28:15;11.00;;;4.80;;
6199;SDS011;3133;43.214;27.906;2023-04-24T14:30:43;13.10;;;4.00;;
6199;SDS011;3133;43.214;27.906;2023-04-24T14:33:09;8.30;;;4.17;;
6199;SDS011;3133;43.214;27.906;2023-04-24T14:35:37;11.67;;;4.57;;
6199;SDS011;3133;43.214;27.906;2023-04-24T14:38:05;8.17;;;5.00;;
6199;SDS011;3133;43.214;27.906;2023-04-24T14:40:35;6.43;;;4.90;;
6199;SDS011;3133;43.214;27.906;2023-04-24T14:43:02;14.47;;;4.97;;
6199;SDS011;3133;43.214;27.906;2023-04-24T14:45:29;6.90;;;4.20;;
6199;SDS011;3133;43.214;27.906;2023-04-24T14:47:55;7.47;;;4.33;;
6199;SDS011;3133;43.214;27.906;2023-04-24T14:50:22;5.87;;;4.13;;
6199;SDS011;3133;43.214;27.906;2023-04-24T14:52:53;11.37;;;4.60;;
6199;SDS011;3133;43.214;27.906;2023-04-24T14:55:21;7.77;;;4.70;;
6199;SDS011;3133;43.214;27.906;2023-04-24T14:57:48;6.63;;;4.37;;
6199;SDS011;3133;43.214;27.906;2023-04-24T15:00:15;6.00;;;4.60;;